sensor_id;sensor_type;location;lat;lon;timestamp;P1;durP1;ratioP1;P2;durP2;ratioP2
3155;SDS011;1588;50.892;7.082;2023-03-16T00:02:28;18.10;;;4.30;;
3155;SDS011;1588;50.892;7.082;2023-03-16T00:07:31;15.77;;;4.53;;
3155;SDS011;1588;50.892;7.082;2023-03-16T00:12:37;14.07;;;4.57;;
3155;SDS011;1588;50.892;7.082;2023-03-16T00:17:43;14.43;;;4.87;;
3155;SDS011;1588;50.892;7.082;2023-03-16T00:22:49;13.83;;;4.20;;
3155;SDS011;1588;50.892;7.082;2023-03-16T00:27:51;8.33;;;3.87;;
3155;SDS011;1588;50.892;7.082;2023-03-16T00:32:53;6.93;;;3.50;;
3155;SDS011;1588;50.892;7.082;2023-03-16T00:37:58;8.53;;;3.60;;
3155;SDS011;1588;50.892;7.082;2023-03-16T00:43:04;12.07;;;3.67;;
3155;SDS011;1588;50.892;7.082;2023-03-16T00:48:07;5.27;;;3.33;;
3155;SDS011;1588;50.892;7.082;2023-03-16T00:53:13;9.03;;;3.63;;
3155;SDS011;1588;50.892;7.082;2023-03-16T00:58:15;6.80;;;3.10;;
3155;SDS011;1588;50.892;7.082;2023-03-16T01:03:19;6.37;;;3.50;;
3155;SDS011;1588;50.892;7.082;2023-03-16T01:08:23;6.10;;;3.40;;
3155;SDS011;1588;50.892;7.082;2023-03-16T01:13:25;10.90;;;3.83;;
3155;SDS011;1588;50.892;7.082;2023-03-16T01:18:28;9.27;;;3.27;;
3155;SDS011;1588;50.892;7.082;2023-03-16T01:23:35;6.67;;;3.30;;
3155;SDS011;1588;50.892;7.082;2023-03-16T01:28:37;7.17;;;3.33;;
3155;SDS011;1588;50.892;7.082;2023-03-16T01:33:42;8.10;;;3.93;;
3155;SDS011;1588;50.892;7.082;2023-03-16T01:38:46;7.37;;;3.13;;
3155;SDS011;1588;50.892;7.082;2023-03-16T01:43:48;6.47;;;3.30;;
3155;SDS011;1588;50.892;7.082;2023-03-16T01:48:59;14.90;;;4.07;;
3155;SDS011;1588;50.892;7.082;2023-03-16T01:54:08;8.53;;;3.00;;
3155;SDS011;1588;50.892;7.082;2023-03-16T01:59:18;7.30;;;3.07;;
3155;SDS011;1588;50.892;7.082;2023-03-16T02:04:35;5.90;;;3.10;;
3155;SDS011;1588;50.892;7.082;2023-03-16T02:09:44;7.90;;;3.63;;
3155;SDS011;1588;50.892;7.082;2023-03-16T02:14:49;8.13;;;2.90;;
3155;SDS011;1588;50.892;7.082;2023-03-16T02:19:55;6.97;;;3.20;;
3155;SDS011;1588;50.892;7.082;2023-03-16T02:25:08;4.40;;;3.00;;
3155;SDS011;1588;50.892;7.082;2023-03-16T02:30:13;9.37;;;3.43;;
3155;SDS011;1588;50.892;7.082;2023-03-16T02:35:19;5.30;;;3.20;;
3155;SDS011;1588;50.892;7.082;2023-03-16T02:40:23;3.17;;;2.50;;
3155;SDS011;1588;50.892;7.082;2023-03-16T02:45:30;4.97;;;3.03;;
3155;SDS011;1588;50.892;7.082;2023-03-16T02:50:35;5.50;;;2.67;;
3155;SDS011;1588;50.892;7.082;2023-03-16T02:55:43;7.50;;;2.77;;
3155;SDS011;1588;50.892;7.082;2023-03-16T03:00:47;9.97;;;2.90;;
3155;SDS011;1588;50.892;7.082;2023-03-16T03:05:49;5.53;;;2.53;;
3155;SDS011;1588;50.892;7.082;2023-03-16T03:10:52;6.53;;;2.63;;
3155;SDS011;1588;50.892;7.082;2023-03-16T03:15:55;10.03;;;2.73;;
3155;SDS011;1588;50.892;7.082;2023-03-16T03:20:58;5.80;;;2.97;;
3155;SDS011;1588;50.892;7.082;2023-03-16T03:26:00;4.60;;;2.70;;
3155;SDS011;1588;50.892;7.082;2023-03-16T03:31:05;7.07;;;3.13;;
3155;SDS011;1588;50.892;7.082;2023-03-16T03:36:07;12.87;;;3.40;;
3155;SDS011;1588;50.892;7.082;2023-03-16T03:41:13;7.47;;;2.60;;
3155;SDS011;1588;50.892;7.082;2023-03-16T03:46:16;6.33;;;3.13;;
3155;SDS011;1588;50.892;7.082;2023-03-16T03:51:18;4.80;;;2.53;;
3155;SDS011;1588;50.892;7.082;2023-03-16T03:56:21;5.13;;;2.73;;
3155;SDS011;1588;50.892;7.082;2023-03-16T04:01:25;7.97;;;3.03;;
3155;SDS011;1588;50.892;7.082;2023-03-16T04:06:27;12.27;;;2.53;;
3155;SDS011;1588;50.892;7.082;2023-03-16T04:11:29;8.33;;;2.90;;
3155;SDS011;1588;50.892;7.082;2023-03-16T04:16:33;10.20;;;2.80;;
3155;SDS011;1588;50.892;7.082;2023-03-16T04:21:36;6.47;;;2.40;;
3155;SDS011;1588;50.892;7.082;2023-03-16T04:26:39;5.10;;;2.87;;
3155;SDS011;1588;50.892;7.082;2023-03-16T04:31:43;11.87;;;3.43;;
3155;SDS011;1588;50.892;7.082;2023-03-16T04:36:45;10.87;;;2.47;;
3155;SDS011;1588;50.892;7.082;2023-03-16T04:41:47;9.63;;;3.30;;
3155;SDS011;1588;50.892;7.082;2023-03-16T04:46:54;8.10;;;3.23;;
3155;SDS011;1588;50.892;7.082;2023-03-16T04:51:58;5.77;;;3.20;;
3155;SDS011;1588;50.892;7.082;2023-03-16T04:57:01;8.60;;;3.70;;
3155;SDS011;1588;50.892;7.082;2023-03-16T05:02:06;6.57;;;3.10;;
3155;SDS011;1588;50.892;7.082;2023-03-16T05:07:09;5.47;;;3.57;;
3155;SDS011;1588;50.892;7.082;2023-03-16T05:12:11;14.70;;;3.27;;
3155;SDS011;1588;50.892;7.082;2023-03-16T05:17:15;7.73;;;3.50;;
3155;SDS011;1588;50.892;7.082;2023-03-16T05:22:17;9.60;;;4.03;;
3155;SDS011;1588;50.892;7.082;2023-03-16T05:27:19;4.93;;;3.27;;
3155;SDS011;1588;50.892;7.082;2023-03-16T05:32:23;8.67;;;3.80;;
3155;SDS011;1588;50.892;7.082;2023-03-16T05:37:25;4.00;;;2.10;;
3155;SDS011;1588;50.892;7.082;2023-03-16T05:42:28;8.90;;;3.40;;
3155;SDS011;1588;50.892;7.082;2023-03-16T05:47:31;8.20;;;3.67;;
3155;SDS011;1588;50.892;7.082;2023-03-16T05:52:37;10.00;;;3.90;;
3155;SDS011;1588;50.892;7.082;2023-03-16T05:57:42;7.33;;;3.50;;
3155;SDS011;1588;50.892;7.082;2023-03-16T06:02:46;9.00;;;4.20;;
3155;SDS011;1588;50.892;7.082;2023-03-16T06:07:50;16.17;;;3.50;;
3155;SDS011;1588;50.892;7.082;2023-03-16T06:12:53;8.30;;;3.70;;
3155;SDS011;1588;50.892;7.082;2023-03-16T06:18:05;8.47;;;4.13;;
3155;SDS011;1588;50.892;7.082;2023-03-16T06:23:08;9.10;;;3.70;;
3155;SDS011;1588;50.892;7.082;2023-03-16T06:28:10;8.17;;;3.57;;
3155;SDS011;1588;50.892;7.082;2023-03-16T06:33:13;12.10;;;4.70;;
3155;SDS011;1588;50.892;7.082;2023-03-16T06:38:16;18.77;;;4.43;;
3155;SDS011;1588;50.892;7.082;2023-03-16T06:43:18;9.10;;;4.10;;
3155;SDS011;1588;50.892;7.082;2023-03-16T06:48:25;10.23;;;3.93;;
3155;SDS011;1588;50.892;7.082;2023-03-16T06:53:27;9.90;;;4.27;;
3155;SDS011;1588;50.892;7.082;2023-03-16T06:58:30;9.80;;;4.63;;
3155;SDS011;1588;50.892;7.082;2023-03-16T07:03:34;17.63;;;4.93;;
3155;SDS011;1588;50.892;7.082;2023-03-16T07:08:36;8.83;;;4.00;;
3155;SDS011;1588;50.892;7.082;2023-03-16T07:13:38;12.43;;;4.60;;
3155;SDS011;1588;50.892;7.082;2023-03-16T07:18:42;10.93;;;4.97;;
3155;SDS011;1588;50.892;7.082;2023-03-16T07:23:44;7.17;;;4.10;;
3155;SDS011;1588;50.892;7.082;2023-03-16T07:28:49;12.60;;;5.00;;
3155;SDS011;1588;50.892;7.082;2023-03-16T07:33:53;13.87;;;5.13;;
3155;SDS011;1588;50.892;7.082;2023-03-16T07:38:58;15.10;;;4.37;;
3155;SDS011;1588;50.892;7.082;2023-03-16T07:44:02;8.53;;;4.37;;
3155;SDS011;1588;50.892;7.082;2023-03-16T07:49:08;11.50;;;4.70;;
3155;SDS011;1588;50.892;7.082;2023-03-16T07:54:14;9.60;;;4.87;;
3155;SDS011;1588;50.892;7.082;2023-03-16T07:59:38;15.43;;;4.40;;
3155;SDS011;1588;50.892;7.082;2023-03-16T08:04:42;12.73;;;4.60;;
3155;SDS011;1588;50.892;7.082;2023-03-16T08:09:45;14.17;;;5.20;;
3155;SDS011;1588;50.892;7.082;2023-03-16T08:14:47;14.30;;;5.37;;
3155;SDS011;1588;50.892;7.082;2023-03-16T08:19:51;9.67;;;4.50;;
3155;SDS011;1588;50.892;7.082;2023-03-16T08:24:53;10.47;;;5.00;;
3155;SDS011;1588;50.892;7.082;2023-03-16T08:29:55;12.27;;;5.10;;
3155;SDS011;1588;50.892;7.082;2023-03-16T08:35:05;12.40;;;5.87;;
3155;SDS011;1588;50.892;7.082;2023-03-16T08:40:10;18.73;;;5.40;;
3155;SDS011;1588;50.892;7.082;2023-03-16T08:45:15;12.40;;;5.63;;
3155;SDS011;1588;50.892;7.082;2023-03-16T08:50:20;10.60;;;5.10;;
3155;SDS011;1588;50.892;7.082;2023-03-16T08:55:23;10.07;;;4.87;;
3155;SDS011;1588;50.892;7.082;2023-03-16T09:00:26;14.40;;;5.40;;
3155;SDS011;1588;50.892;7.082;2023-03-16T09:05:30;8.60;;;4.40;;
3155;SDS011;1588;50.892;7.082;2023-03-16T09:10:33;9.13;;;4.67;;
3155;SDS011;1588;50.892;7.082;2023-03-16T09:15:38;8.17;;;4.47;;
3155;SDS011;1588;50.892;7.082;2023-03-16T09:20:42;14.10;;;3.93;;
3155;SDS011;1588;50.892;7.082;2023-03-16T09:25:47;9.10;;;4.50;;
3155;SDS011;1588;50.892;7.082;2023-03-16T09:30:50;7.93;;;4.13;;
3155;SDS011;1588;50.892;7.082;2023-03-16T09:35:54;9.47;;;3.67;;
3155;SDS011;1588;50.892;7.082;2023-03-16T09:40:58;8.13;;;4.30;;
3155;SDS011;1588;50.892;7.082;2023-03-16T09:46:04;7.67;;;4.10;;
3155;SDS011;1588;50.892;7.082;2023-03-16T09:51:14;7.20;;;4.03;;
3155;SDS011;1588;50.892;7.082;2023-03-16T09:56:26;9.87;;;4.63;;
3155;SDS011;1588;50.892;7.082;2023-03-16T10:01:36;9.07;;;4.10;;
3155;SDS011;1588;50.892;7.082;2023-03-16T10:06:50;5.60;;;3.80;;
3155;SDS011;1588;50.892;7.082;2023-03-16T10:12:02;7.03;;;4.13;;
3155;SDS011;1588;50.892;7.082;2023-03-16T10:17:10;7.73;;;3.93;;
3155;SDS011;1588;50.892;7.082;2023-03-16T10:22:19;6.57;;;4.10;;
3155;SDS011;1588;50.892;7.082;2023-03-16T10:27:27;13.80;;;4.60;;
3155;SDS011;1588;50.892;7.082;2023-03-16T10:32:32;8.57;;;4.50;;
3155;SDS011;1588;50.892;7.082;2023-03-16T10:37:37;8.30;;;4.20;;
3155;SDS011;1588;50.892;7.082;2023-03-16T10:42:43;7.43;;;3.80;;
3155;SDS011;1588;50.892;7.082;2023-03-16T10:47:48;9.60;;;5.07;;
3155;SDS011;1588;50.892;7.082;2023-03-16T10:52:53;4.13;;;3.67;;
3155;SDS011;1588;50.892;7.082;2023-03-16T10:57:56;9.37;;;4.43;;
3155;SDS011;1588;50.892;7.082;2023-03-16T11:02:59;5.00;;;3.00;;
3155;SDS011;1588;50.892;7.082;2023-03-16T11:08:05;5.70;;;3.50;;
3155;SDS011;1588;50.892;7.082;2023-03-16T11:13:13;7.60;;;3.53;;
3155;SDS011;1588;50.892;7.082;2023-03-16T11:18:27;11.87;;;3.70;;
3155;SDS011;1588;50.892;7.082;2023-03-16T11:23:33;6.60;;;3.40;;
3155;SDS011;1588;50.892;7.082;2023-03-16T11:28:41;10.30;;;3.80;;
3155;SDS011;1588;50.892;7.082;2023-03-16T11:33:48;10.37;;;3.37;;
3155;SDS011;1588;50.892;7.082;2023-03-16T11:38:53;6.33;;;3.20;;
3155;SDS011;1588;50.892;7.082;2023-03-16T11:44:05;6.73;;;3.10;;
3155;SDS011;1588;50.892;7.082;2023-03-16T11:49:24;4.90;;;2.97;;
3155;SDS011;1588;50.892;7.082;2023-03-16T11:54:48;4.90;;;2.20;;
3155;SDS011;1588;50.892;7.082;2023-03-16T12:00:00;4.17;;;2.00;;
3155;SDS011;1588;50.892;7.082;2023-03-16T12:05:19;4.53;;;2.40;;
3155;SDS011;1588;50.892;7.082;2023-03-16T12:10:33;4.47;;;2.33;;
3155;SDS011;1588;50.892;7.082;2023-03-16T12:15:41;3.87;;;2.10;;
3155;SDS011;1588;50.892;7.082;2023-03-16T12:20:51;6.77;;;2.40;;
3155;SDS011;1588;50.892;7.082;2023-03-16T12:25:57;3.43;;;2.03;;
3155;SDS011;1588;50.892;7.082;2023-03-16T12:31:04;2.83;;;2.17;;
3155;SDS011;1588;50.892;7.082;2023-03-16T12:41:50;2.23;;;1.67;;
3155;SDS011;1588;50.892;7.082;2023-03-16T12:47:02;2.00;;;1.80;;
3155;SDS011;1588;50.892;7.082;2023-03-16T12:52:14;2.97;;;1.90;;
3155;SDS011;1588;50.892;7.082;2023-03-16T12:57:18;5.07;;;1.90;;
3155;SDS011;1588;50.892;7.082;2023-03-16T13:02:27;6.10;;;2.40;;
3155;SDS011;1588;50.892;7.082;2023-03-16T13:07:35;2.57;;;1.80;;
3155;SDS011;1588;50.892;7.082;2023-03-16T13:12:40;3.43;;;1.77;;
3155;SDS011;1588;50.892;7.082;2023-03-16T13:17:42;5.50;;;2.30;;
3155;SDS011;1588;50.892;7.082;2023-03-16T13:22:45;6.93;;;2.07;;
3155;SDS011;1588;50.892;7.082;2023-03-16T13:27:53;4.30;;;2.10;;
3155;SDS011;1588;50.892;7.082;2023-03-16T13:32:58;4.73;;;2.10;;
3155;SDS011;1588;50.892;7.082;2023-03-16T13:38:12;6.10;;;2.03;;
3155;SDS011;1588;50.892;7.082;2023-03-16T13:43:18;7.43;;;1.73;;
3155;SDS011;1588;50.892;7.082;2023-03-16T13:48:22;3.27;;;1.83;;
3155;SDS011;1588;50.892;7.082;2023-03-16T13:53:26;2.90;;;1.50;;
3155;SDS011;1588;50.892;7.082;2023-03-16T13:58:31;3.77;;;1.90;;
3155;SDS011;1588;50.892;7.082;2023-03-16T14:03:36;8.30;;;2.37;;
3155;SDS011;1588;50.892;7.082;2023-03-16T14:08:41;2.20;;;1.70;;
3155;SDS011;1588;50.892;7.082;2023-03-16T14:13:51;8.50;;;2.53;;
3155;SDS011;1588;50.892;7.082;2023-03-16T14:18:56;4.60;;;2.20;;
3155;SDS011;1588;50.892;7.082;2023-03-16T14:24:02;3.70;;;1.93;;
3155;SDS011;1588;50.892;7.082;2023-03-16T14:29:11;4.30;;;2.10;;
3155;SDS011;1588;50.892;7.082;2023-03-16T14:34:19;5.20;;;2.40;;
3155;SDS011;1588;50.892;7.082;2023-03-16T14:39:28;4.97;;;2.00;;
3155;SDS011;1588;50.892;7.082;2023-03-16T14:44:33;2.70;;;2.17;;
3155;SDS011;1588;50.892;7.082;2023-03-16T14:49:36;3.33;;;2.27;;
3155;SDS011;1588;50.892;7.082;2023-03-16T14:54:40;5.87;;;2.20;;
3155;SDS011;1588;50.892;7.082;2023-03-16T14:59:43;5.40;;;2.30;;
3155;SDS011;1588;50.892;7.082;2023-03-16T15:04:45;4.53;;;2.13;;
3155;SDS011;1588;50.892;7.082;2023-03-16T15:09:48;5.03;;;2.50;;
3155;SDS011;1588;50.892;7.082;2023-03-16T15:14:54;3.80;;;2.23;;
3155;SDS011;1588;50.892;7.082;2023-03-16T15:20:14;5.20;;;2.40;;
3155;SDS011;1588;50.892;7.082;2023-03-16T15:25:22;5.97;;;2.70;;
3155;SDS011;1588;50.892;7.082;2023-03-16T15:30:29;4.50;;;2.70;;
3155;SDS011;1588;50.892;7.082;2023-03-16T15:35:32;3.37;;;2.97;;
3155;SDS011;1588;50.892;7.082;2023-03-16T15:40:38;3.77;;;2.40;;
3155;SDS011;1588;50.892;7.082;2023-03-16T15:45:44;5.97;;;2.83;;
3155;SDS011;1588;50.892;7.082;2023-03-16T15:50:49;5.07;;;2.27;;
3155;SDS011;1588;50.892;7.082;2023-03-16T15:55:55;6.70;;;2.07;;
3155;SDS011;1588;50.892;7.082;2023-03-16T16:01:04;4.83;;;2.57;;
3155;SDS011;1588;50.892;7.082;2023-03-16T16:06:08;4.53;;;2.80;;
3155;SDS011;1588;50.892;7.082;2023-03-16T16:11:12;5.03;;;2.30;;
3155;SDS011;1588;50.892;7.082;2023-03-16T16:16:18;4.93;;;2.87;;
3155;SDS011;1588;50.892;7.082;2023-03-16T16:21:21;9.00;;;2.87;;
3155;SDS011;1588;50.892;7.082;2023-03-16T16:26:26;6.87;;;2.80;;
3155;SDS011;1588;50.892;7.082;2023-03-16T16:31:32;10.87;;;3.03;;
3155;SDS011;1588;50.892;7.082;2023-03-16T16:36:34;9.97;;;2.97;;
3155;SDS011;1588;50.892;7.082;2023-03-16T16:41:37;6.10;;;2.80;;
3155;SDS011;1588;50.892;7.082;2023-03-16T16:46:42;7.70;;;2.80;;
3155;SDS011;1588;50.892;7.082;2023-03-16T16:51:45;4.33;;;2.67;;
3155;SDS011;1588;50.892;7.082;2023-03-16T16:56:49;7.80;;;3.53;;
3155;SDS011;1588;50.892;7.082;2023-03-16T17:01:55;5.53;;;2.83;;
3155;SDS011;1588;50.892;7.082;2023-03-16T17:06:58;6.03;;;3.13;;
3155;SDS011;1588;50.892;7.082;2023-03-16T17:12:02;4.30;;;2.70;;
3155;SDS011;1588;50.892;7.082;2023-03-16T17:17:10;5.63;;;3.10;;
3155;SDS011;1588;50.892;7.082;2023-03-16T17:22:18;4.10;;;3.10;;
3155;SDS011;1588;50.892;7.082;2023-03-16T17:27:24;4.47;;;3.10;;
3155;SDS011;1588;50.892;7.082;2023-03-16T17:32:30;5.33;;;2.83;;
3155;SDS011;1588;50.892;7.082;2023-03-16T17:37:32;5.63;;;2.93;;
3155;SDS011;1588;50.892;7.082;2023-03-16T17:42:35;5.40;;;2.83;;
3155;SDS011;1588;50.892;7.082;2023-03-16T17:47:38;8.73;;;2.23;;
3155;SDS011;1588;50.892;7.082;2023-03-16T17:52:41;4.70;;;2.73;;
3155;SDS011;1588;50.892;7.082;2023-03-16T17:57:43;4.77;;;2.87;;
3155;SDS011;1588;50.892;7.082;2023-03-16T18:02:48;4.93;;;2.70;;
3155;SDS011;1588;50.892;7.082;2023-03-16T18:07:53;4.13;;;2.57;;
3155;SDS011;1588;50.892;7.082;2023-03-16T18:12:59;5.87;;;2.57;;
3155;SDS011;1588;50.892;7.082;2023-03-16T18:18:05;4.33;;;2.73;;
3155;SDS011;1588;50.892;7.082;2023-03-16T18:23:11;4.67;;;2.70;;
3155;SDS011;1588;50.892;7.082;2023-03-16T18:28:18;4.70;;;2.57;;
3155;SDS011;1588;50.892;7.082;2023-03-16T18:33:23;7.87;;;3.07;;
3155;SDS011;1588;50.892;7.082;2023-03-16T18:38:28;8.07;;;2.70;;
3155;SDS011;1588;50.892;7.082;2023-03-16T18:43:32;6.73;;;2.53;;
3155;SDS011;1588;50.892;7.082;2023-03-16T18:48:36;5.10;;;2.67;;
3155;SDS011;1588;50.892;7.082;2023-03-16T18:53:38;4.20;;;2.40;;
3155;SDS011;1588;50.892;7.082;2023-03-16T18:58:40;5.10;;;2.33;;
3155;SDS011;1588;50.892;7.082;2023-03-16T19:03:44;4.30;;;2.70;;
3155;SDS011;1588;50.892;7.082;2023-03-16T19:08:46;7.03;;;2.90;;
3155;SDS011;1588;50.892;7.082;2023-03-16T19:13:49;5.10;;;2.67;;
3155;SDS011;1588;50.892;7.082;2023-03-16T19:18:56;3.93;;;2.80;;
3155;SDS011;1588;50.892;7.082;2023-03-16T19:23:59;7.60;;;3.17;;
3155;SDS011;1588;50.892;7.082;2023-03-16T19:29:04;8.00;;;2.73;;
3155;SDS011;1588;50.892;7.082;2023-03-16T19:34:10;7.20;;;3.40;;
3155;SDS011;1588;50.892;7.082;2023-03-16T19:39:19;5.80;;;3.13;;
3155;SDS011;1588;50.892;7.082;2023-03-16T19:44:22;9.93;;;3.20;;
3155;SDS011;1588;50.892;7.082;2023-03-16T19:49:27;6.77;;;3.60;;
3155;SDS011;1588;50.892;7.082;2023-03-16T19:54:29;4.10;;;2.97;;
3155;SDS011;1588;50.892;7.082;2023-03-16T19:59:32;6.80;;;3.70;;
3155;SDS011;1588;50.892;7.082;2023-03-16T20:04:37;15.90;;;3.83;;
3155;SDS011;1588;50.892;7.082;2023-03-16T20:09:39;6.90;;;3.90;;
3155;SDS011;1588;50.892;7.082;2023-03-16T20:14:41;5.37;;;3.40;;
3155;SDS011;1588;50.892;7.082;2023-03-16T20:19:45;6.37;;;3.93;;
3155;SDS011;1588;50.892;7.082;2023-03-16T20:24:48;7.57;;;3.90;;
3155;SDS011;1588;50.892;7.082;2023-03-16T20:29:50;5.33;;;2.83;;
3155;SDS011;1588;50.892;7.082;2023-03-16T20:34:54;8.40;;;3.70;;
3155;SDS011;1588;50.892;7.082;2023-03-16T20:39:56;8.70;;;3.80;;
3155;SDS011;1588;50.892;7.082;2023-03-16T20:44:59;15.00;;;3.90;;
3155;SDS011;1588;50.892;7.082;2023-03-16T20:50:04;6.37;;;3.10;;
3155;SDS011;1588;50.892;7.082;2023-03-16T20:55:07;6.30;;;3.07;;
3155;SDS011;1588;50.892;7.082;2023-03-16T21:00:19;5.60;;;3.50;;
3155;SDS011;1588;50.892;7.082;2023-03-16T21:05:28;6.10;;;3.33;;
3155;SDS011;1588;50.892;7.082;2023-03-16T21:10:33;5.87;;;3.03;;
3155;SDS011;1588;50.892;7.082;2023-03-16T21:15:35;6.10;;;3.73;;
3155;SDS011;1588;50.892;7.082;2023-03-16T21:20:39;5.30;;;3.17;;
3155;SDS011;1588;50.892;7.082;2023-03-16T21:25:43;5.90;;;3.53;;
3155;SDS011;1588;50.892;7.082;2023-03-16T21:30:48;6.73;;;2.90;;
3155;SDS011;1588;50.892;7.082;2023-03-16T21:35:59;5.03;;;2.83;;
3155;SDS011;1588;50.892;7.082;2023-03-16T21:41:03;4.77;;;2.70;;
3155;SDS011;1588;50.892;7.082;2023-03-16T21:46:09;4.70;;;2.93;;
3155;SDS011;1588;50.892;7.082;2023-03-16T21:51:19;5.30;;;2.90;;
3155;SDS011;1588;50.892;7.082;2023-03-16T21:56:24;4.67;;;3.07;;
3155;SDS011;1588;50.892;7.082;2023-03-16T22:01:27;5.13;;;2.10;;
3155;SDS011;1588;50.892;7.082;2023-03-16T22:06:33;3.20;;;2.53;;
3155;SDS011;1588;50.892;7.082;2023-03-16T22:11:36;7.03;;;2.97;;
3155;SDS011;1588;50.892;7.082;2023-03-16T22:16:38;5.30;;;3.07;;
3155;SDS011;1588;50.892;7.082;2023-03-16T22:21:43;4.50;;;2.53;;
3155;SDS011;1588;50.892;7.082;2023-03-16T22:26:46;3.03;;;2.50;;
3155;SDS011;1588;50.892;7.082;2023-03-16T22:31:51;3.37;;;2.40;;
3155;SDS011;1588;50.892;7.082;2023-03-16T22:36:57;5.07;;;2.73;;
3155;SDS011;1588;50.892;7.082;2023-03-16T22:42:01;3.57;;;2.37;;
3155;SDS011;1588;50.892;7.082;2023-03-16T22:47:04;5.27;;;2.30;;
3155;SDS011;1588;50.892;7.082;2023-03-16T22:52:13;7.50;;;2.73;;
3155;SDS011;1588;50.892;7.082;2023-03-16T22:57:16;8.20;;;2.47;;
3155;SDS011;1588;50.892;7.082;2023-03-16T23:02:19;4.30;;;2.60;;
3155;SDS011;1588;50.892;7.082;2023-03-16T23:07:29;6.17;;;2.07;;
3155;SDS011;1588;50.892;7.082;2023-03-16T23:12:33;4.03;;;2.40;;
3155;SDS011;1588;50.892;7.082;2023-03-16T23:17:36;3.93;;;2.30;;
3155;SDS011;1588;50.892;7.082;2023-03-16T23:22:40;3.77;;;2.30;;
3155;SDS011;1588;50.892;7.082;2023-03-16T23:27:43;8.90;;;2.37;;
3155;SDS011;1588;50.892;7.082;2023-03-16T23:32:46;4.50;;;2.30;;
3155;SDS011;1588;50.892;7.082;2023-03-16T23:37:51;5.20;;;3.00;;
3155;SDS011;1588;50.892;7.082;2023-03-16T23:42:54;2.67;;;2.43;;
3155;SDS011;1588;50.892;7.082;2023-03-16T23:47:59;4.77;;;2.30;;
3155;SDS011;1588;50.892;7.082;2023-03-16T23:53:08;6.10;;;2.43;;
3155;SDS011;1588;50.892;7.082;2023-03-16T23:58:13;5.77;;;2.60;;
